Weather at Creeds Heliport

Public forecast

Using degrees Fahrenheit for public forecast. Weather courtesy of forecast.io.

Closest aviation weather report (METAR) to Creeds Heliport

Closest report is Fentress Naval Auxiliary Landing Field, 8.3 nm (15.4 km) NW. Retrieved 2020/10/27 14:11 UTC (24 minutes ago):

KNFE 271411Z AUTO 32003KT 3SM BR OVC002 15/14 A3021 RMK AO2 T01500144

Closest aviation forecast (TAF) to Creeds Heliport

Forecast is more than 12 hours old.

Closest forecast is Oceana Naval Air Station, 13.0 nm (24.1 km) N. Retrieved 2020-05-12 23:47 UTC (6 months ago):

TAF KNTU 112000Z 1123/1223 33010KT 9999 SCT080 QNH2990INS TEMPO 1123/1205 VRB06KT BKN080 FM121800 28006KT 9999 BKN050 QNH3017INS T08/1210Z T16/1219Z FN20051